Forside
METAR-TAF:

METAR-TAF

Lufthavne :

Illinois Valley Regional Airport (Walter A. Duncan Field)

Peru / LaSalle, Illinois, USA

Breddekreds: 41-21-07N, længdekreds: 089-09-11W, højde: 199 m

Aktuelle vejr

Denne rapport blev lavet for 16 minutter siden, kl. 11:55 UTC
Vind 19 kt fra sydsydøst med vindstød på up til 22 kt
Temperatur -8°C
Fugtighed 73%
Tryk 1021 hPa
Sigt: 16.1 km
Spredte skyer i en højde af 5000 ft
Overskyet i en højde af 6000 ft

METAR: KVYS 221155Z AUTO 15019G22KT 10SM SCT050 OVC060 M08/M12 A3015 RMK AO2 T10771120 11077 21104

Tid: 06:11 (12:11 UTC)


TAF: fraværende

Vejrobservationer og prognoser fra mere end 4000 lufthavne (METAR og TAF).

De gule og røde prikker repræsenterer de meteorologiske stationer.

Flyt musen over at se navnet på stationen.

Så klik over at se vejr observationer og prognoser.

At skifte det kort: Klik på de grønne knapper med et sort kors for at zoome ind; på den grønne knap med en bindestreg for at zoome ud; eller på de grønne pile for tilstødende kort.


METAR-TAF: